Time;durP1;ratioP1;P1;durP2;ratioP2;P2;SDS_P1;SDS_P2;PMS_P1;PMS_P2;Temp;Humidity;BMP_temperature;BMP_pressure;BME280_temperature;BME280_humidity;BME280_pressure;Samples;Min_cycle;Max_cycle;Signal;HPM_P1;HPM_P2
2022/10/01 00:01:13;;;;;;;1999.90;999.90;;;9.30;99.90;;;;;;5078603;28;20948;-77
2022/10/01 00:03:40;;;;;;;1999.90;999.90;;;9.10;99.90;;;;;;5082578;28;20441;-74
2022/10/01 00:06:10;;;;;;;1999.90;999.90;;;8.90;99.90;;;;;;5069296;28;20605;-73
2022/10/01 00:08:39;;;;;;;1999.90;999.90;;;8.90;99.90;;;;;;5076492;28;20477;-74
2022/10/01 00:11:11;;;;;;;1999.90;999.90;;;8.90;99.90;;;;;;5079847;28;20537;-74
2022/10/01 00:13:39;;;;;;;1999.90;999.90;;;8.90;99.90;;;;;;5081905;28;20461;-74
2022/10/01 00:16:07;;;;;;;1999.90;999.90;;;8.70;99.90;;;;;;5077618;28;20456;-74
2022/10/01 00:18:36;;;;;;;1999.90;999.90;;;8.60;99.90;;;;;;5074507;28;20849;-72
2022/10/01 00:21:07;;;;;;;1999.90;999.90;;;8.60;99.90;;;;;;5072705;28;20984;-75
2022/10/01 00:23:34;;;;;;;1999.90;999.90;;;8.80;99.90;;;;;;5077119;28;20466;-72
2022/10/01 00:26:12;;;;;;;1999.90;999.90;;;8.70;99.90;;;;;;5076765;28;20469;-74
2022/10/01 00:28:40;;;;;;;1999.90;999.90;;;8.70;99.90;;;;;;5076023;28;20918;-72
2022/10/01 00:31:08;;;;;;;1999.90;999.90;;;8.60;99.90;;;;;;5075452;28;20476;-72
2022/10/01 00:33:35;;;;;;;1999.90;999.90;;;8.60;99.90;;;;;;5075912;28;20539;-70
2022/10/01 00:36:02;;;;;;;1999.90;999.90;;;8.70;99.90;;;;;;5073726;28;20527;-75
2022/10/01 00:38:29;;;;;;;1999.90;999.90;;;8.60;99.90;;;;;;5077002;28;20492;-74
2022/10/01 00:40:57;;;;;;;1999.90;999.90;;;8.60;99.90;;;;;;5076133;28;20535;-73
2022/10/01 00:43:26;;;;;;;1999.90;999.90;;;8.70;99.90;;;;;;5075867;28;20489;-74
2022/10/01 00:45:58;;;;;;;1999.90;999.90;;;8.70;99.90;;;;;;5074865;28;20519;-74
2022/10/01 00:48:27;;;;;;;1999.90;999.90;;;8.70;99.90;;;;;;5070224;28;20504;-74
2022/10/01 00:50:54;;;;;;;1999.90;999.90;;;8.80;99.90;;;;;;5075004;28;20758;-75
2022/10/01 00:53:21;;;;;;;1999.90;999.90;;;9.20;99.90;;;;;;5074870;28;20478;-74
2022/10/01 00:55:54;;;;;;;1999.90;999.90;;;8.90;99.90;;;;;;5074746;28;21003;-73
2022/10/01 00:58:23;;;;;;;1999.90;999.90;;;9.00;99.90;;;;;;5074877;28;20913;-74
2022/10/01 01:00:51;;;;;;;1999.90;999.90;;;9.00;99.90;;;;;;5075284;28;20453;-76
2022/10/01 01:03:19;;;;;;;1999.90;999.90;;;9.10;99.90;;;;;;5071189;28;20471;-74
2022/10/01 01:05:46;;;;;;;1999.90;999.90;;;9.10;99.90;;;;;;5074493;28;20457;-70
2022/10/01 01:08:18;;;;;;;1999.90;999.90;;;8.90;99.90;;;;;;5078366;28;20465;-75
2022/10/01 01:10:55;;;;;;;1999.90;999.90;;;9.20;99.90;;;;;;5073852;28;20480;-74
2022/10/01 01:13:32;;;;;;;1999.90;999.90;;;9.20;99.90;;;;;;5074827;28;20457;-74
2022/10/01 01:16:05;;;;;;;1999.90;999.90;;;9.30;99.90;;;;;;5071959;28;20460;-75
2022/10/01 01:18:39;;;;;;;1999.90;999.90;;;9.20;99.90;;;;;;5071428;28;20505;-73
2022/10/01 01:21:19;;;;;;;1999.90;999.90;;;9.20;99.90;;;;;;5074524;28;20453;-76
2022/10/01 01:24:21;;;;;;;1999.90;999.90;;;9.30;99.90;;;;;;5072225;28;20461;-75
2022/10/01 01:26:58;;;;;;;1999.90;999.90;;;9.30;99.90;;;;;;5073609;28;20461;-73
2022/10/01 01:29:32;;;;;;;1999.90;999.90;;;9.40;99.90;;;;;;5071266;28;20477;-76
2022/10/01 01:32:06;;;;;;;1999.90;999.90;;;9.20;99.90;;;;;;5068997;28;20468;-75
2022/10/01 01:34:34;;;;;;;1999.90;999.90;;;9.20;99.90;;;;;;5066047;28;20954;-75
2022/10/01 01:37:11;;;;;;;1999.90;999.90;;;9.20;99.90;;;;;;5072265;28;20908;-74
2022/10/01 01:39:41;;;;;;;1999.90;999.90;;;9.20;99.90;;;;;;5073531;28;20492;-75
2022/10/01 01:42:13;;;;;;;1999.90;999.90;;;9.50;99.90;;;;;;5074221;28;20488;-76
2022/10/01 01:44:45;;;;;;;1999.90;999.90;;;9.20;99.90;;;;;;5073557;28;20461;-75
2022/10/01 01:47:14;;;;;;;1999.90;999.90;;;9.20;99.90;;;;;;5075084;28;20538;-71
2022/10/01 01:49:42;;;;;;;1999.90;999.90;;;9.20;99.90;;;;;;5075009;28;20554;-75
2022/10/01 01:52:12;;;;;;;1999.90;999.90;;;9.20;99.90;;;;;;5073583;28;20874;-74
2022/10/01 01:54:39;;;;;;;1999.90;999.90;;;9.30;99.90;;;;;;5074451;28;20453;-73
2022/10/01 01:57:07;;;;;;;1999.90;999.90;;;9.30;99.90;;;;;;5073950;28;20461;-72
2022/10/01 01:59:34;;;;;;;1999.90;999.90;;;9.50;99.90;;;;;;5075544;28;20492;-74
2022/10/01 02:02:06;;;;;;;1999.90;999.90;;;9.60;99.90;;;;;;5072923;28;20461;-71
2022/10/01 02:04:37;;;;;;;1999.90;999.90;;;9.60;99.90;;;;;;5073751;28;20523;-75
2022/10/01 02:07:30;;;;;;;1999.90;999.90;;;9.60;99.90;;;;;;5077155;28;20460;-74
2022/10/01 02:10:07;;;;;;;1999.90;999.90;;;9.50;99.90;;;;;;5037240;28;20473;-76
2022/10/01 02:12:46;;;;;;;1999.90;999.90;;;9.50;99.90;;;;;;5075106;28;20471;-75
2022/10/01 02:15:22;;;;;;;1999.90;999.90;;;9.40;99.90;;;;;;5071470;28;20464;-71
2022/10/01 02:17:57;;;;;;;1999.90;999.90;;;9.40;99.90;;;;;;5074033;28;20547;-72
2022/10/01 02:20:30;;;;;;;1999.90;999.90;;;9.50;99.90;;;;;;5074497;28;20900;-74
2022/10/01 02:23:00;;;;;;;1999.90;999.90;;;9.60;99.90;;;;;;5070272;28;20890;-75
2022/10/01 02:25:33;;;;;;;1999.90;999.90;;;9.80;99.90;;;;;;5066706;28;20468;-74
2022/10/01 02:28:04;;;;;;;1999.90;999.90;;;9.80;99.90;;;;;;5071440;28;20453;-74
2022/10/01 02:30:34;;;;;;;1999.90;999.90;;;9.80;99.90;;;;;;5071780;28;20491;-71
2022/10/01 02:33:04;;;;;;;1999.90;999.90;;;9.90;99.90;;;;;;5072307;28;20461;-72
2022/10/01 02:35:33;;;;;;;1999.90;999.90;;;10.00;99.90;;;;;;5074007;28;20500;-74
2022/10/01 02:38:04;;;;;;;1999.90;999.90;;;9.90;99.90;;;;;;5073479;28;20547;-75
2022/10/01 02:40:35;;;;;;;1999.90;999.90;;;10.00;99.90;;;;;;5067867;28;20480;-72
2022/10/01 02:43:07;;;;;;;1999.90;999.90;;;10.20;99.90;;;;;;5073980;28;21014;-72
2022/10/01 02:45:37;;;;;;;1999.90;999.90;;;10.40;99.90;;;;;;5073898;28;20473;-73
2022/10/01 02:48:08;;;;;;;1999.90;999.90;;;10.40;99.90;;;;;;5074153;28;20543;-71
2022/10/01 02:50:40;;;;;;;1999.90;999.90;;;10.40;99.90;;;;;;5075947;28;20464;-74
2022/10/01 02:53:10;;;;;;;1999.90;999.90;;;10.40;99.90;;;;;;5077602;28;20469;-74
2022/10/01 02:55:40;;;;;;;1999.90;999.90;;;10.40;99.90;;;;;;5077781;28;20472;-74
2022/10/01 02:58:07;;;;;;;1999.90;999.90;;;10.40;99.90;;;;;;5076870;28;20976;-75
2022/10/01 03:00:34;;;;;;;1999.90;999.90;;;10.40;99.90;;;;;;5078273;28;20551;-75
2022/10/01 03:03:01;;;;;;;1999.90;999.90;;;10.40;99.90;;;;;;5080445;28;21005;-73
2022/10/01 03:05:29;;;;;;;1999.90;999.90;;;10.40;99.90;;;;;;5077912;28;20452;-75
2022/10/01 03:07:56;;;;;;;1999.90;999.90;;;10.50;99.90;;;;;;5071036;28;20466;-74
2022/10/01 03:10:23;;;;;;;1999.90;999.90;;;10.50;99.90;;;;;;5076389;28;20563;-74
2022/10/01 03:12:50;;;;;;;1999.90;999.90;;;10.50;99.90;;;;;;5075528;28;20543;-75
2022/10/01 03:15:19;;;;;;;1999.90;999.90;;;10.60;99.90;;;;;;5064784;28;20461;-75
2022/10/01 03:17:46;;;;;;;1999.90;999.90;;;10.50;99.90;;;;;;5067824;28;20954;-74
2022/10/01 03:20:13;;;;;;;1999.90;999.90;;;10.50;99.90;;;;;;5068177;28;20876;-74
2022/10/01 03:22:44;;;;;;;1999.90;999.90;;;10.40;99.90;;;;;;5074964;28;20461;-74
2022/10/01 03:25:11;;;;;;;1999.90;999.90;;;10.40;99.90;;;;;;5074084;28;20567;-76
2022/10/01 03:27:37;;;;;;;1999.90;999.90;;;10.30;99.90;;;;;;5071766;28;20466;-75
2022/10/01 03:30:05;;;;;;;1999.90;999.90;;;10.30;99.90;;;;;;5065449;28;20485;-74
2022/10/01 03:32:32;;;;;;;1999.90;999.90;;;10.20;99.90;;;;;;5073922;28;20481;-74
2022/10/01 03:34:59;;;;;;;1999.90;999.90;;;10.20;99.90;;;;;;5074236;28;20461;-71
2022/10/01 03:37:26;;;;;;;1999.90;999.90;;;10.20;99.90;;;;;;5074571;28;20462;-74
2022/10/01 03:39:55;;;;;;;1999.90;999.90;;;10.20;99.90;;;;;;5074209;28;20529;-75
2022/10/01 03:42:21;;;;;;;1999.90;999.90;;;10.10;99.90;;;;;;5074242;28;20479;-74
2022/10/01 03:44:48;;;;;;;1999.90;999.90;;;10.10;99.90;;;;;;5063429;28;20466;-75
2022/10/01 03:47:15;;;;;;;1999.90;999.90;;;10.20;99.90;;;;;;5072676;28;20472;-74
2022/10/01 03:49:42;;;;;;;1999.90;999.90;;;10.20;99.90;;;;;;5074672;28;20485;-74
2022/10/01 03:52:09;;;;;;;1999.90;999.90;;;10.20;99.90;;;;;;5072557;28;20564;-75
2022/10/01 03:54:35;;;;;;;1999.90;999.90;;;10.20;99.90;;;;;;5073227;28;20461;-75
2022/10/01 03:57:04;;;;;;;1999.90;999.90;;;10.30;99.90;;;;;;5072655;28;20461;-75
2022/10/01 03:59:31;;;;;;;1999.90;999.90;;;10.30;99.90;;;;;;5072705;28;20481;-76
2022/10/01 04:01:58;;;;;;;1999.90;999.90;;;10.40;99.90;;;;;;5072578;28;20462;-74
2022/10/01 04:04:27;;;;;;;1999.90;999.90;;;10.40;99.90;;;;;;5073548;28;20458;-72
2022/10/01 04:06:54;;;;;;;1999.90;999.90;;;10.40;99.90;;;;;;5073476;28;20909;-72
2022/10/01 04:09:21;;;;;;;1999.90;999.90;;;10.40;99.90;;;;;;5078292;28;20476;-75
2022/10/01 04:11:48;;;;;;;1999.90;999.90;;;10.80;99.90;;;;;;5072751;28;20485;-70
2022/10/01 04:14:16;;;;;;;1999.90;999.90;;;11.20;99.90;;;;;;5075901;28;22279;-75
2022/10/01 04:16:44;;;;;;;1999.90;999.90;;;11.60;99.90;;;;;;5076138;28;20465;-72
2022/10/01 04:19:10;;;;;;;1999.90;999.90;;;12.00;99.90;;;;;;5079366;28;20481;-78
2022/10/01 04:21:37;;;;;;;1999.90;999.90;;;11.80;99.90;;;;;;5074958;28;20553;-75
2022/10/01 04:24:04;;;;;;;1999.90;999.90;;;12.00;99.90;;;;;;5074650;28;20888;-70
2022/10/01 04:26:31;;;;;;;1999.90;999.90;;;12.00;99.90;;;;;;5071302;28;20456;-75
2022/10/01 04:28:58;;;;;;;1999.90;999.90;;;12.00;99.90;;;;;;5073262;28;21022;-74
2022/10/01 04:31:26;;;;;;;1999.90;999.90;;;11.90;99.90;;;;;;5073879;28;21020;-74
2022/10/01 04:33:54;;;;;;;1999.90;999.90;;;11.90;99.90;;;;;;5075703;28;20466;-74
2022/10/01 04:36:22;;;;;;;1999.90;999.90;;;11.80;99.90;;;;;;5076521;28;20467;-70
2022/10/01 04:38:51;;;;;;;1999.90;999.90;;;11.80;99.90;;;;;;5075279;28;20839;-72
2022/10/01 04:41:19;;;;;;;1999.90;999.90;;;11.70;99.90;;;;;;5074211;28;20569;-74
2022/10/01 04:43:46;;;;;;;1999.90;999.90;;;11.70;99.90;;;;;;5075437;28;20503;-73
2022/10/01 04:46:14;;;;;;;1999.90;999.90;;;11.80;99.90;;;;;;5075186;28;20453;-73
2022/10/01 04:48:42;;;;;;;1999.90;999.90;;;11.60;99.90;;;;;;5071620;28;20489;-74
2022/10/01 04:51:09;;;;;;;1999.90;999.90;;;11.60;99.90;;;;;;5075696;28;20552;-73
2022/10/01 04:53:36;;;;;;;1999.90;999.90;;;11.50;99.90;;;;;;5078096;28;20467;-72
2022/10/01 04:56:03;;;;;;;1999.90;999.90;;;11.50;99.90;;;;;;5072220;28;20449;-74
2022/10/01 04:58:30;;;;;;;1999.90;999.90;;;11.50;99.90;;;;;;5075661;28;20473;-75
2022/10/01 05:00:57;;;;;;;1999.90;999.90;;;11.50;99.90;;;;;;5075239;28;20847;-74
2022/10/01 05:03:24;;;;;;;1999.90;999.90;;;11.50;99.90;;;;;;5075597;28;20460;-75
2022/10/01 05:05:52;;;;;;;1999.90;999.90;;;11.40;99.90;;;;;;5076242;28;20476;-75
2022/10/01 05:08:19;;;;;;;1999.90;999.90;;;11.40;99.90;;;;;;5075401;28;20464;-75
2022/10/01 05:10:46;;;;;;;1999.90;999.90;;;11.50;99.90;;;;;;5074734;28;20551;-71
2022/10/01 05:13:13;;;;;;;1999.90;999.90;;;11.50;99.90;;;;;;5078613;28;21032;-74
2022/10/01 05:15:40;;;;;;;1999.90;999.90;;;11.50;99.90;;;;;;5075328;28;20472;-74
2022/10/01 05:18:07;;;;;;;1999.90;999.90;;;11.40;99.90;;;;;;5071749;28;20461;-76
2022/10/01 05:20:36;;;;;;;1999.90;999.90;;;11.50;99.90;;;;;;5073232;28;20468;-74
2022/10/01 05:23:04;;;;;;;1999.90;999.90;;;11.50;99.90;;;;;;5067454;28;20531;-75
2022/10/01 05:25:31;;;;;;;1999.90;999.90;;;11.50;99.90;;;;;;5073809;28;20457;-75
2022/10/01 05:28:04;;;;;;;1999.90;999.90;;;11.50;99.90;;;;;;5072824;28;20892;-75
2022/10/01 05:30:31;;;;;;;1999.90;999.90;;;11.50;99.90;;;;;;5073794;28;20461;-71
2022/10/01 05:33:00;;;;;;;1999.90;999.90;;;11.60;99.90;;;;;;5069847;28;20477;-72
2022/10/01 05:35:27;;;;;;;1999.90;999.90;;;11.50;99.90;;;;;;5074822;28;20464;-74
2022/10/01 05:37:55;;;;;;;1999.90;999.90;;;11.70;99.90;;;;;;5072943;28;20464;-75
2022/10/01 05:40:26;;;;;;;1999.90;999.90;;;11.60;99.90;;;;;;5078176;28;20547;-75
2022/10/01 05:42:53;;;;;;;1999.90;999.90;;;12.10;99.90;;;;;;5074720;28;20485;-76
2022/10/01 05:45:21;;;;;;;1999.90;999.90;;;11.60;99.90;;;;;;5098924;22;20482;-70
2022/10/01 05:47:49;;;;;;;1999.90;999.90;;;11.70;99.90;;;;;;5085709;28;20567;-71
2022/10/01 05:50:16;;;;;;;1999.90;999.90;;;11.70;99.90;;;;;;5088951;28;20456;-70
2022/10/01 05:52:50;;;;;;;1999.90;999.90;;;11.60;99.90;;;;;;5089122;28;20516;-71
2022/10/01 05:55:17;;;;;;;1999.90;999.90;;;11.60;99.90;;;;;;5085233;28;20517;-71
2022/10/01 05:57:52;;;;;;;1999.90;999.90;;;11.60;99.90;;;;;;5064091;28;20453;-71
2022/10/01 06:00:20;;;;;;;1999.90;999.90;;;11.60;99.90;;;;;;5066673;28;20976;-71
2022/10/01 06:02:50;;;;;;;1999.90;999.90;;;11.50;99.90;;;;;;5068083;28;20453;-71
2022/10/01 06:05:17;;;;;;;1999.90;999.90;;;11.30;99.90;;;;;;5068721;28;20485;-71
2022/10/01 06:07:43;;;;;;;1999.90;999.90;;;11.30;99.90;;;;;;5064149;28;20457;-71
2022/10/01 06:10:10;;;;;;;1999.90;999.90;;;11.20;99.90;;;;;;5068688;28;20462;-71
2022/10/01 06:12:37;;;;;;;1999.90;999.90;;;11.10;99.90;;;;;;5069208;28;20861;-71
2022/10/01 06:15:06;;;;;;;1999.90;999.90;;;11.00;99.90;;;;;;5067933;28;20465;-71
2022/10/01 06:17:33;;;;;;;1999.90;999.90;;;11.00;99.90;;;;;;5068298;28;20468;-71
2022/10/01 06:20:00;;;;;;;1999.90;999.90;;;10.90;99.90;;;;;;5069116;28;20846;-70
2022/10/01 06:22:27;;;;;;;1999.90;999.90;;;10.80;99.90;;;;;;5069123;28;20477;-71
2022/10/01 06:24:54;;;;;;;1999.90;999.90;;;10.80;99.90;;;;;;5069330;28;20511;-70
2022/10/01 06:27:20;;;;;;;1999.90;999.90;;;10.80;99.90;;;;;;5068511;28;20477;-70
2022/10/01 06:29:47;;;;;;;1999.90;999.90;;;10.90;99.90;;;;;;5068785;28;20470;-71
2022/10/01 06:32:18;;;;;;;1999.90;999.90;;;11.00;99.90;;;;;;5067244;28;20477;-70
2022/10/01 06:34:45;;;;;;;1999.90;999.90;;;11.00;99.90;;;;;;5063769;28;20461;-73
2022/10/01 06:37:12;;;;;;;1999.90;999.90;;;11.00;99.90;;;;;;5068057;28;20485;-73
2022/10/01 06:39:38;;;;;;;1999.90;999.90;;;11.10;99.90;;;;;;5066416;28;20465;-72
2022/10/01 06:42:05;;;;;;;1999.90;999.90;;;11.10;99.90;;;;;;5066210;28;20453;-71
2022/10/01 06:44:32;;;;;;;1999.90;999.90;;;11.10;99.90;;;;;;5068566;28;20461;-70
2022/10/01 06:46:59;;;;;;;1999.90;999.90;;;11.10;99.90;;;;;;5068700;28;20515;-70
2022/10/01 06:49:27;;;;;;;1999.90;999.90;;;11.10;99.90;;;;;;5068509;28;21406;-71
2022/10/01 06:54:46;;;;;;;1999.90;999.90;;;11.20;99.90;;;;;;5016647;28;20418;-72
2022/10/01 06:57:13;;;;;;;1999.90;999.90;;;11.30;99.90;;;;;;5071291;28;20461;-72
2022/10/01 06:59:40;;;;;;;1999.90;999.90;;;11.30;99.90;;;;;;5070319;28;20468;-74
2022/10/01 07:02:06;;;;;;;1999.90;999.90;;;11.30;99.90;;;;;;5070657;28;20438;-71
2022/10/01 07:04:35;;;;;;;1999.90;999.90;;;11.30;99.90;;;;;;5071235;28;20444;-72
2022/10/01 07:07:01;;;;;;;1999.90;999.90;;;11.30;99.90;;;;;;5071332;28;20465;-71
2022/10/01 07:09:28;;;;;;;1999.90;999.90;;;11.30;99.90;;;;;;5071263;28;20456;-72
2022/10/01 07:11:56;;;;;;;1999.90;999.90;;;11.40;99.90;;;;;;5071206;28;21111;-72
2022/10/01 07:14:22;;;;;;;1999.90;999.90;;;11.40;99.90;;;;;;5069568;28;20469;-69
2022/10/01 07:16:49;;;;;;;1999.90;999.90;;;11.40;99.90;;;;;;5071223;28;20468;-72
2022/10/01 07:19:16;;;;;;;1999.90;999.90;;;11.50;99.90;;;;;;5071185;28;20827;-70
2022/10/01 07:21:45;;;;;;;1999.90;999.90;;;11.60;99.90;;;;;;5071262;28;20448;-71
2022/10/01 07:24:12;;;;;;;1999.90;999.90;;;11.70;99.90;;;;;;5071395;28;20453;-72
2022/10/01 07:26:39;;;;;;;1999.90;999.90;;;11.70;99.90;;;;;;5068810;28;20590;-72
2022/10/01 07:29:07;;;;;;;1999.90;999.90;;;11.80;99.90;;;;;;5065850;28;20461;-71
2022/10/01 07:31:34;;;;;;;1999.90;999.90;;;11.90;99.90;;;;;;5067915;28;20868;-71
2022/10/01 07:34:01;;;;;;;1999.90;999.90;;;11.90;99.90;;;;;;5070857;28;20484;-72
2022/10/01 07:36:27;;;;;;;1999.90;999.90;;;11.80;99.90;;;;;;5070275;28;20989;-71
2022/10/01 07:38:57;;;;;;;1999.90;999.90;;;11.80;99.90;;;;;;5074042;28;20952;-71
2022/10/01 07:41:24;;;;;;;1999.90;999.90;;;11.80;99.90;;;;;;5074772;28;20456;-71
2022/10/01 07:43:51;;;;;;;1999.90;999.90;;;11.80;99.90;;;;;;5072956;28;20456;-71
2022/10/01 07:46:18;;;;;;;1999.90;999.90;;;11.80;99.90;;;;;;5074148;28;20480;-71
2022/10/01 07:48:46;;;;;;;1999.90;999.90;;;11.80;99.90;;;;;;5074560;28;20448;-72
2022/10/01 07:51:12;;;;;;;1999.90;999.90;;;11.80;99.90;;;;;;5079217;28;20437;-72
2022/10/01 07:53:39;;;;;;;1999.90;999.90;;;11.70;99.90;;;;;;5084009;28;20488;-70
2022/10/01 07:56:07;;;;;;;1999.90;999.90;;;11.70;99.90;;;;;;5074157;28;20484;-71
2022/10/01 07:58:35;;;;;;;1999.90;999.90;;;11.70;99.90;;;;;;5071344;28;20961;-72
2022/10/01 08:01:04;;;;;;;1999.90;999.90;;;11.70;99.90;;;;;;5073281;28;20465;-71
2022/10/01 08:03:30;;;;;;;1999.90;999.90;;;11.70;99.90;;;;;;5073683;28;20449;-71
2022/10/01 08:05:57;;;;;;;1999.90;999.90;;;11.60;99.90;;;;;;5073782;28;20816;-71
2022/10/01 08:08:24;;;;;;;1999.90;999.90;;;11.70;99.90;;;;;;5074107;28;20441;-71
2022/10/01 08:10:51;;;;;;;1999.90;999.90;;;11.70;99.90;;;;;;5073158;28;20461;-71
2022/10/01 08:13:23;;;;;;;1999.90;999.90;;;11.70;99.90;;;;;;5074089;28;20477;-71
2022/10/01 08:15:52;;;;;;;1999.90;999.90;;;11.70;99.90;;;;;;5071084;28;20954;-71
2022/10/01 08:18:19;;;;;;;1999.90;999.90;;;11.70;99.90;;;;;;5071214;28;20556;-71
2022/10/01 08:20:46;;;;;;;1999.90;999.90;;;11.70;99.90;;;;;;5070478;28;20466;-68
2022/10/01 08:23:15;;;;;;;1999.90;999.90;;;11.80;99.90;;;;;;5073048;28;20468;-71
2022/10/01 08:25:43;;;;;;;1999.90;999.90;;;11.90;99.90;;;;;;5072744;28;20480;-72
2022/10/01 08:28:11;;;;;;;1999.90;999.90;;;12.00;99.90;;;;;;5073892;28;20446;-71
2022/10/01 08:30:41;;;;;;;1999.90;999.90;;;12.00;99.90;;;;;;5073768;28;20514;-71
2022/10/01 08:33:11;;;;;;;1999.90;999.90;;;12.10;99.90;;;;;;5073579;28;20634;-72
2022/10/01 08:35:39;;;;;;;1999.90;999.90;;;12.20;99.90;;;;;;5073156;28;20476;-71
2022/10/01 08:38:06;;;;;;;1999.90;999.90;;;12.20;99.90;;;;;;5073814;28;20445;-71
2022/10/01 08:40:36;;;;;;;1999.90;999.90;;;12.20;99.90;;;;;;5072054;28;20902;-71
2022/10/01 08:43:05;;;;;;;1999.90;999.90;;;12.30;99.90;;;;;;5073644;28;20430;-71
2022/10/01 08:45:42;;;;;;;1999.90;999.90;;;12.30;99.90;;;;;;5072938;28;20486;-70
2022/10/01 08:48:18;;;;;;;1999.90;999.90;;;12.30;99.90;;;;;;5073343;28;20487;-71
2022/10/01 08:50:51;;;;;;;1999.90;999.90;;;12.30;99.90;;;;;;5073348;28;20824;-71
2022/10/01 08:53:28;;;;;;;1999.90;999.90;;;12.30;99.90;;;;;;5073439;28;20938;-71
2022/10/01 08:55:56;;;;;;;1999.90;999.90;;;12.40;99.90;;;;;;5069828;28;20481;-71
2022/10/01 08:58:28;;;;;;;1999.90;999.90;;;12.40;99.90;;;;;;5072372;28;20466;-72
2022/10/01 09:00:55;;;;;;;1999.90;999.90;;;12.50;99.90;;;;;;5069747;28;20468;-71
2022/10/01 09:03:23;;;;;;;1999.90;999.90;;;12.50;99.90;;;;;;5067518;28;20468;-72
2022/10/01 09:06:03;;;;;;;1999.90;999.90;;;12.50;99.90;;;;;;5070386;28;20516;-71
2022/10/01 09:08:45;;;;;;;1999.90;999.90;;;12.50;99.90;;;;;;5068451;28;20542;-69
2022/10/01 09:11:28;;;;;;;1999.90;999.90;;;12.60;99.90;;;;;;5072189;28;20487;-72
2022/10/01 09:14:13;;;;;;;1999.90;999.90;;;12.80;99.90;;;;;;5072715;28;20466;-71
2022/10/01 09:16:49;;;;;;;1999.90;999.90;;;12.70;99.90;;;;;;5055176;28;20466;-71
2022/10/01 09:19:44;;;;;;;1999.90;999.90;;;12.80;99.90;;;;;;5072633;28;20464;-71
2022/10/01 09:22:18;;;;;;;1999.90;999.90;;;12.90;99.90;;;;;;5066321;28;20555;-71
2022/10/01 09:24:50;;;;;;;1999.90;999.90;;;13.00;99.90;;;;;;5070205;28;20456;-72
2022/10/01 09:27:19;;;;;;;1999.90;999.90;;;13.00;99.90;;;;;;5068022;28;20486;-72
2022/10/01 09:29:51;;;;;;;1999.90;999.90;;;13.10;99.90;;;;;;5069237;28;20476;-72
2022/10/01 09:32:22;;;;;;;1999.90;999.90;;;13.30;99.90;;;;;;5069504;28;20464;-71
2022/10/01 09:34:50;;;;;;;1999.90;999.90;;;13.30;99.90;;;;;;5068373;28;20462;-72
2022/10/01 09:37:26;;;;;;;1999.90;999.90;;;13.30;99.90;;;;;;5068249;28;20485;-73
2022/10/01 09:40:04;;;;;;;1999.90;999.90;;;13.30;99.90;;;;;;5065517;28;20453;-72
2022/10/01 09:42:31;;;;;;;1999.90;999.90;;;13.30;99.90;;;;;;5067051;28;20987;-72
2022/10/01 09:44:59;;;;;;;1999.90;999.90;;;13.20;99.90;;;;;;5068703;28;20469;-70
2022/10/01 09:47:26;;;;;;;1999.90;999.90;;;13.20;99.90;;;;;;5068185;28;20473;-71
2022/10/01 09:49:56;;;;;;;1999.90;999.90;;;13.20;99.90;;;;;;5067434;28;20461;-71
2022/10/01 09:52:31;;;;;;;1999.90;999.90;;;13.20;99.90;;;;;;5069488;28;20519;-70
2022/10/01 09:55:02;;;;;;;1999.90;999.90;;;13.30;99.90;;;;;;5071870;28;20520;-72
2022/10/01 09:57:34;;;;;;;1999.90;999.90;;;13.40;99.90;;;;;;5072028;28;20499;-71
2022/10/01 10:00:08;;;;;;;1999.90;999.90;;;13.50;99.90;;;;;;5071446;28;20481;-72
2022/10/01 10:02:40;;;;;;;1999.90;999.90;;;13.50;99.90;;;;;;5071614;28;20540;-73
2022/10/01 10:05:13;;;;;;;1999.90;999.90;;;13.50;99.90;;;;;;5071151;28;20909;-70
2022/10/01 10:07:44;;;;;;;1999.90;999.90;;;13.50;99.90;;;;;;5071252;28;20448;-71
2022/10/01 10:10:18;;;;;;;1999.90;999.90;;;13.50;99.90;;;;;;5067496;28;20466;-69
2022/10/01 10:12:45;;;;;;;1999.90;999.90;;;13.80;99.90;;;;;;5069769;28;21013;-68
2022/10/01 10:15:17;;;;;;;1999.90;999.90;;;13.90;99.90;;;;;;5070482;28;20933;-70
2022/10/01 10:17:48;;;;;;;1999.90;999.90;;;14.00;99.90;;;;;;5070657;28;20441;-72
2022/10/01 10:20:26;;;;;;;1999.90;999.90;;;13.70;99.90;;;;;;5069625;28;20465;-70
2022/10/01 10:22:53;;;;;;;1999.90;999.90;;;13.60;99.90;;;;;;5072077;28;20441;-70
2022/10/01 10:25:24;;;;;;;1999.90;999.90;;;13.80;99.90;;;;;;5071117;28;20473;-70
2022/10/01 10:27:54;;;;;;;1999.90;999.90;;;13.90;99.90;;;;;;5069582;28;20465;-71
2022/10/01 10:30:23;;;;;;;1999.90;999.90;;;14.10;99.90;;;;;;5071380;28;20481;-70
2022/10/01 10:32:50;;;;;;;1999.90;999.90;;;14.10;99.90;;;;;;5071201;28;20828;-70
2022/10/01 10:35:23;;;;;;;1999.90;999.90;;;14.20;99.90;;;;;;5071275;28;20840;-69
2022/10/01 10:37:52;;;;;;;1999.90;999.90;;;14.50;99.90;;;;;;5071969;28;20487;-70
2022/10/01 10:40:22;;;;;;;1999.90;999.90;;;14.30;99.90;;;;;;5070612;28;20469;-70
2022/10/01 10:42:51;;;;;;;1999.90;999.90;;;14.10;99.90;;;;;;5071691;28;20448;-69
2022/10/01 10:45:20;;;;;;;1999.90;999.90;;;14.00;99.90;;;;;;5071304;28;20445;-70
2022/10/01 10:47:51;;;;;;;1999.90;999.90;;;13.90;99.90;;;;;;5071205;28;20449;-72
2022/10/01 10:50:30;;;;;;;1999.90;999.90;;;13.70;99.90;;;;;;5071732;28;20456;-72
2022/10/01 10:52:58;;;;;;;1999.90;999.90;;;13.60;99.90;;;;;;5071524;28;20453;-70
2022/10/01 10:55:29;;;;;;;1999.90;999.90;;;13.50;99.90;;;;;;5070375;28;20515;-70
2022/10/01 10:58:07;;;;;;;1999.90;999.90;;;13.70;99.90;;;;;;5071183;28;20528;-71
2022/10/01 11:00:43;;;;;;;1999.90;999.90;;;13.80;99.90;;;;;;5071349;28;20934;-69
2022/10/01 11:03:15;;;;;;;1999.90;999.90;;;13.90;99.90;;;;;;5068888;28;20476;-69
2022/10/01 11:05:44;;;;;;;1999.90;999.90;;;13.90;99.90;;;;;;5066025;28;20863;-71
2022/10/01 11:08:18;;;;;;;1999.90;999.90;;;14.00;99.90;;;;;;5065873;28;21000;-70
2022/10/01 11:10:52;;;;;;;1999.90;999.90;;;14.20;99.90;;;;;;5067902;28;20468;-68
2022/10/01 11:13:38;;;;;;;1999.90;999.90;;;14.30;99.90;;;;;;5071026;28;20474;-70
2022/10/01 11:16:23;;;;;;;1999.90;999.90;;;14.30;99.90;;;;;;5068778;28;20484;-71
2022/10/01 11:19:02;;;;;;;1999.90;999.90;;;14.30;99.90;;;;;;5071965;28;20463;-70
2022/10/01 11:21:49;;;;;;;1999.90;999.90;;;14.60;99.90;;;;;;5069875;28;20987;-70
2022/10/01 11:24:32;;;;;;;1999.90;999.90;;;14.70;99.90;;;;;;5069593;28;20461;-68
2022/10/01 11:27:06;;;;;;;1999.90;999.90;;;14.70;99.90;;;;;;5069677;28;20568;-70
2022/10/01 11:29:46;;;;;;;1999.90;999.90;;;14.60;99.90;;;;;;5070132;28;20476;-70
2022/10/01 11:32:22;;;;;;;1999.90;999.90;;;14.40;99.90;;;;;;5071784;28;20465;-68
2022/10/01 11:35:12;;;;;;;1999.90;999.90;;;14.40;99.90;;;;;;5071972;28;20496;-69
2022/10/01 11:37:56;;;;;;;1999.90;999.90;;;14.30;99.90;;;;;;5068823;28;20470;-68
2022/10/01 11:40:28;;;;;;;1999.90;999.90;;;14.50;99.90;;;;;;5069970;28;20461;-70
2022/10/01 11:43:01;;;;;;;1999.90;999.90;;;14.80;99.90;;;;;;5066996;28;20843;-70
2022/10/01 11:45:33;;;;;;;1999.90;999.90;;;14.70;99.90;;;;;;5086465;22;20477;-71
2022/10/01 11:48:05;;;;;;;1999.90;999.90;;;14.70;99.90;;;;;;5084332;28;21014;-74
2022/10/01 11:50:34;;;;;;;1999.90;999.90;;;14.90;99.90;;;;;;5091215;28;20478;-76
2022/10/01 11:53:08;;;;;;;1999.90;999.90;;;14.70;99.90;;;;;;5093122;28;20457;-71
2022/10/01 11:58:51;;;;;;;1999.90;999.90;;;14.10;99.90;;;;;;5014397;28;20447;-74
2022/10/01 12:01:26;;;;;;;1999.90;999.90;;;14.00;99.90;;;;;;5077437;28;20543;-74
2022/10/01 12:04:11;;;;;;;1999.90;999.90;;;14.20;99.90;;;;;;5095220;28;20468;-73
2022/10/01 12:06:45;;;;;;;1999.90;999.90;;;14.20;99.90;;;;;;5092428;28;20987;-74
2022/10/01 12:09:20;;;;;;;1999.90;999.90;;;14.60;99.90;;;;;;5089884;28;20475;-74
2022/10/01 12:11:51;;;;;;;1999.90;999.90;;;14.70;99.90;;;;;;5089228;28;20459;-73
2022/10/01 12:14:22;;;;;;;1999.90;999.90;;;15.10;99.90;;;;;;5087768;28;20948;-71
2022/10/01 12:16:54;;;;;;;1999.90;999.90;;;15.40;99.90;;;;;;5090359;28;20999;-76
2022/10/01 12:19:24;;;;;;;1999.90;999.90;;;16.10;99.90;;;;;;5088345;28;20470;-70
2022/10/01 12:21:56;;;;;;;1999.90;999.90;;;16.40;99.90;;;;;;5090533;28;20457;-70